createdAt,value
2022-11-17T00:00:42.865Z,93.38
2022-11-17T00:01:42.817Z,93.28
2022-11-17T00:02:42.891Z,94.51
2022-11-17T00:03:42.797Z,93.99
2022-11-17T00:04:42.784Z,94.30
2022-11-17T00:05:42.802Z,93.79
2022-11-17T00:06:42.836Z,93.89
2022-11-17T00:07:42.730Z,94.10
2022-11-17T00:08:42.744Z,93.18
2022-11-17T00:09:42.738Z,92.56
2022-11-17T00:10:42.703Z,93.69
2022-11-17T00:11:42.695Z,93.38
2022-11-17T00:12:42.686Z,93.89
2022-11-17T00:13:42.665Z,94.51
2022-11-17T00:14:42.667Z,94.40
2022-11-17T00:15:42.669Z,94.60
2022-11-17T00:16:42.639Z,94.40
2022-11-17T00:17:48.663Z,94.30
2022-11-17T00:18:42.617Z,95.02
2022-11-17T00:19:42.924Z,94.60
2022-11-17T00:20:42.603Z,95.43
2022-11-17T00:21:42.581Z,95.12
2022-11-17T00:22:42.570Z,93.18
2022-11-17T00:23:42.574Z,94.20
2022-11-17T00:24:42.546Z,93.69
2022-11-17T00:25:42.576Z,94.10
2022-11-17T00:26:42.531Z,93.89
2022-11-17T00:27:42.512Z,95.32
2022-11-17T00:28:42.511Z,94.71
2022-11-17T00:29:42.489Z,93.89
2022-11-17T00:30:44.070Z,94.10
2022-11-17T00:31:42.526Z,94.71
2022-11-17T00:32:42.468Z,93.22
2022-11-17T00:33:42.846Z,93.84
2022-11-17T00:34:42.437Z,94.24
2022-11-17T00:35:42.432Z,94.40
2022-11-17T00:36:42.426Z,94.65
2022-11-17T00:37:42.417Z,94.20
2022-11-17T00:38:42.399Z,93.89
2022-11-17T00:39:42.387Z,93.93
2022-11-17T00:40:42.378Z,93.63
2022-11-17T00:41:42.376Z,93.73
2022-11-17T00:42:42.388Z,94.14
2022-11-17T00:43:42.338Z,94.14
2022-11-17T00:44:42.342Z,94.85
2022-11-17T00:45:42.328Z,94.45
2022-11-17T00:46:42.325Z,94.14
2022-11-17T00:47:42.294Z,94.85
2022-11-17T00:48:42.308Z,93.43
2022-11-17T00:49:42.288Z,94.55
2022-11-17T00:50:42.281Z,95.88
2022-11-17T00:51:42.253Z,94.65
2022-11-17T00:52:42.260Z,95.17
2022-11-17T00:53:42.250Z,95.88
2022-11-17T00:54:42.248Z,95.17
2022-11-17T00:55:42.300Z,95.57
2022-11-17T00:56:42.205Z,95.67
2022-11-17T00:57:42.198Z,95.57
2022-11-17T00:58:42.190Z,96.49
2022-11-17T00:59:42.167Z,96.19
2022-11-17T01:00:42.181Z,95.57
2022-11-17T01:01:42.190Z,96.08
2022-11-17T01:02:42.137Z,95.67
2022-11-17T01:03:42.128Z,95.57
2022-11-17T01:04:42.118Z,94.65
2022-11-17T01:05:42.125Z,95.06
2022-11-17T01:06:42.125Z,95.06
2022-11-17T01:07:42.082Z,94.14
2022-11-17T01:08:42.073Z,95.26
2022-11-17T01:09:42.090Z,93.84
2022-11-17T01:10:42.062Z,94.45
2022-11-17T01:11:42.074Z,94.75
2022-11-17T01:12:42.027Z,94.75
2022-11-17T01:13:42.015Z,94.85
2022-11-17T01:14:42.015Z,94.55
2022-11-17T01:15:41.998Z,94.85
2022-11-17T01:16:42.005Z,94.55
2022-11-17T01:17:41.976Z,95.06
2022-11-17T01:18:41.977Z,94.65
2022-11-17T01:19:41.958Z,95.78
2022-11-17T01:20:41.945Z,95.17
2022-11-17T01:21:41.933Z,96.39
2022-11-17T01:22:41.949Z,95.37
2022-11-17T01:23:41.909Z,94.14
2022-11-17T01:24:41.908Z,94.65
2022-11-17T01:25:41.880Z,95.06
2022-11-17T01:26:41.896Z,94.96
2022-11-17T01:27:41.897Z,94.24
2022-11-17T01:28:41.870Z,94.65
2022-11-17T01:29:41.843Z,94.96
2022-11-17T01:30:41.842Z,94.75
2022-11-17T01:31:41.823Z,94.55
2022-11-17T01:32:41.824Z,94.85
2022-11-17T01:33:41.799Z,95.37
2022-11-17T01:34:41.805Z,94.04
2022-11-17T01:35:41.773Z,94.45
2022-11-17T01:36:41.764Z,95.26
2022-11-17T01:37:41.755Z,94.55
2022-11-17T01:38:41.760Z,94.65
2022-11-17T01:39:41.752Z,95.78
2022-11-17T01:40:41.728Z,95.26
2022-11-17T01:41:41.716Z,95.67
2022-11-17T01:42:41.710Z,95.57
2022-11-17T01:43:41.703Z,94.24
2022-11-17T01:44:41.695Z,93.84
2022-11-17T01:45:41.671Z,94.34
2022-11-17T01:46:41.680Z,93.63
2022-11-17T01:47:41.645Z,94.04
2022-11-17T01:48:41.649Z,95.37
2022-11-17T01:49:41.634Z,94.24
2022-11-17T01:50:41.642Z,94.45
2022-11-17T01:51:41.628Z,93.63
2022-11-17T01:52:42.374Z,94.75
2022-11-17T01:53:41.581Z,94.45
2022-11-17T01:54:41.592Z,93.93
2022-11-17T01:55:41.557Z,93.12
2022-11-17T01:56:41.562Z,93.84
2022-11-17T01:57:41.586Z,94.75
2022-11-17T01:58:41.536Z,94.14
2022-11-17T01:59:41.520Z,93.52
2022-11-17T02:00:41.522Z,94.55
2022-11-17T02:01:41.611Z,94.45
2022-11-17T02:02:41.501Z,93.93
2022-11-17T02:03:41.476Z,95.06
2022-11-17T02:04:41.465Z,93.63
2022-11-17T02:05:41.456Z,94.24
2022-11-17T02:06:41.461Z,95.47
2022-11-17T02:07:41.431Z,93.84
2022-11-17T02:08:41.453Z,94.55
2022-11-17T02:09:41.425Z,94.85
2022-11-17T06:00:44.788Z,99.99
2022-11-17T06:01:45.429Z,99.99
2022-11-17T06:02:45.422Z,99.99
2022-11-17T06:03:45.411Z,99.99
2022-11-17T06:04:45.456Z,99.99
2022-11-17T06:05:45.408Z,99.99
2022-11-17T06:06:45.398Z,99.99
2022-11-17T06:07:45.376Z,99.99
2022-11-17T06:08:45.361Z,99.99
2022-11-17T06:09:45.386Z,99.99
2022-11-17T06:10:45.349Z,99.99
2022-11-17T06:11:45.332Z,99.99
2022-11-17T06:12:45.315Z,99.99
2022-11-17T06:13:45.307Z,99.99
2022-11-17T06:14:45.288Z,99.99
2022-11-17T06:16:38.232Z,99.99
2022-11-17T06:17:39.162Z,99.99
2022-11-17T06:18:39.208Z,99.99
2022-11-17T06:19:39.158Z,99.99
2022-11-17T06:20:39.192Z,99.99
2022-11-17T06:22:09.678Z,99.99
2022-11-17T06:22:41.864Z,99.99
2022-11-17T06:23:39.161Z,99.99
2022-11-17T06:24:39.104Z,99.99
2022-11-17T06:25:39.073Z,99.99
2022-11-17T06:26:39.104Z,99.99
2022-11-17T06:27:39.060Z,99.99
2022-11-17T06:28:39.049Z,99.99
2022-11-17T06:29:43.915Z,99.99
2022-11-17T06:30:39.030Z,99.99
2022-11-17T06:31:39.012Z,99.99
2022-11-17T06:32:39.021Z,99.99
2022-11-17T06:33:39.109Z,99.99
2022-11-17T06:34:38.983Z,99.99
2022-11-17T06:35:38.971Z,99.99
2022-11-17T06:36:38.961Z,99.99
2022-11-17T06:37:38.951Z,99.99
2022-11-17T06:38:38.960Z,99.99
2022-11-17T06:39:38.928Z,99.99
2022-11-17T06:40:38.916Z,99.99
2022-11-17T06:41:38.920Z,99.99
2022-11-17T06:42:38.894Z,99.99
2022-11-17T06:43:39.076Z,99.99
2022-11-17T06:44:38.895Z,99.99
2022-11-17T06:45:38.862Z,99.99
2022-11-17T06:46:38.851Z,99.99
2022-11-17T06:47:38.836Z,99.99
2022-11-17T06:48:39.236Z,99.99
2022-11-17T06:49:38.815Z,99.99
2022-11-17T06:50:38.844Z,99.99
2022-11-17T06:51:43.777Z,99.99
2022-11-17T06:52:38.811Z,99.99
2022-11-17T06:53:38.805Z,99.99
2022-11-17T06:54:38.817Z,99.99
2022-11-17T06:55:38.794Z,99.99
2022-11-17T06:56:38.787Z,99.99
2022-11-17T06:57:38.756Z,99.99
2022-11-17T06:58:39.022Z,99.99
2022-11-17T06:59:38.737Z,99.99
2022-11-17T07:00:38.832Z,99.99
2022-11-17T07:01:38.737Z,99.99
2022-11-17T07:02:38.719Z,99.99
2022-11-17T07:03:38.695Z,99.99
2022-11-17T07:04:38.752Z,99.99
2022-11-17T07:05:40.327Z,99.99
2022-11-17T07:06:38.689Z,99.99
2022-11-17T07:07:38.746Z,99.99
2022-11-17T07:08:38.868Z,99.99
2022-11-17T07:09:38.640Z,99.99
2022-11-17T07:10:38.633Z,99.99
2022-11-17T07:11:38.610Z,99.99
2022-11-17T07:12:38.632Z,99.99
2022-11-17T07:13:38.582Z,99.99
2022-11-17T07:14:38.595Z,99.99
2022-11-17T07:15:38.568Z,99.99
2022-11-17T07:16:38.566Z,99.99
2022-11-17T07:17:38.540Z,99.99
2022-11-17T07:18:38.587Z,99.99
2022-11-17T07:19:38.525Z,99.99
2022-11-17T07:20:38.604Z,99.99
2022-11-17T07:21:38.494Z,99.99
2022-11-17T07:22:38.498Z,99.99
2022-11-17T07:23:38.495Z,99.99
2022-11-17T07:24:38.476Z,99.99
2022-11-17T07:25:38.481Z,99.99
2022-11-17T07:26:38.467Z,99.99
2022-11-17T07:27:38.433Z,99.99
2022-11-17T07:28:38.803Z,99.99
2022-11-17T07:29:38.433Z,99.99
2022-11-17T07:30:38.411Z,99.99
2022-11-17T07:31:38.394Z,99.99
2022-11-17T07:32:38.411Z,99.99
2022-11-17T07:33:38.370Z,99.99
2022-11-17T07:34:38.383Z,99.99
2022-11-17T07:35:38.353Z,99.99
2022-11-17T07:36:38.351Z,99.99
2022-11-17T07:37:38.329Z,99.99
2022-11-17T07:38:38.852Z,99.99
2022-11-17T07:39:38.312Z,99.99
2022-11-17T07:40:38.333Z,99.99
2022-11-17T07:41:38.281Z,99.99
2022-11-17T07:42:38.310Z,99.99
2022-11-17T07:43:38.281Z,99.99
2022-11-17T07:44:38.265Z,99.99
2022-11-17T07:45:38.238Z,99.99
2022-11-17T07:46:38.256Z,99.99
2022-11-17T07:47:38.235Z,99.99
2022-11-17T07:48:38.532Z,99.99
2022-11-17T07:49:38.198Z,99.99
2022-11-17T07:50:38.199Z,99.99
2022-11-17T07:51:38.180Z,99.99
2022-11-17T07:52:41.482Z,99.99
2022-11-17T07:53:38.164Z,99.99
2022-11-17T07:54:38.151Z,99.99
2022-11-17T07:55:38.124Z,99.99
2022-11-17T07:56:38.131Z,99.82
2022-11-17T07:57:38.131Z,99.99
2022-11-17T07:58:38.600Z,99.99
2022-11-17T07:59:38.111Z,99.99
2022-11-17T08:00:38.148Z,99.99
2022-11-17T08:01:38.062Z,99.99
2022-11-17T08:02:38.064Z,99.99
2022-11-17T08:03:38.167Z,99.99
2022-11-17T08:04:38.060Z,99.98
2022-11-17T08:05:43.077Z,99.57
2022-11-17T08:06:38.028Z,99.99
2022-11-17T08:07:38.067Z,99.99
2022-11-17T08:08:38.713Z,99.22
2022-11-17T08:09:37.983Z,98.50
2022-11-17T08:10:37.982Z,99.52
2022-11-17T08:11:37.964Z,98.91
2022-11-17T08:12:37.961Z,99.73
2022-11-17T08:13:37.936Z,98.91
2022-11-17T08:14:37.961Z,98.50
2022-11-17T08:15:38.541Z,99.63
2022-11-17T08:16:37.924Z,99.32
2022-11-17T08:17:37.898Z,98.61
2022-11-17T08:18:38.192Z,98.50
2022-11-17T08:19:37.869Z,97.89
2022-11-17T08:20:38.220Z,97.95
2022-11-17T08:21:37.855Z,97.95
2022-11-17T08:22:37.835Z,98.05
2022-11-17T08:23:37.838Z,97.74
2022-11-17T08:24:37.839Z,98.46
2022-11-17T08:25:37.819Z,97.44
2022-11-17T08:26:37.823Z,97.74
2022-11-17T08:27:37.805Z,98.46
2022-11-17T08:28:38.320Z,98.05
2022-11-17T08:29:37.784Z,97.64
2022-11-17T08:30:37.747Z,96.42
2022-11-17T08:31:37.816Z,97.24
2022-11-17T08:32:37.735Z,96.51
2022-11-17T08:33:37.740Z,97.33
2022-11-17T08:34:37.749Z,96.72
2022-11-17T08:35:37.895Z,96.51
2022-11-17T08:36:37.710Z,97.13
2022-11-17T08:37:37.689Z,95.50
2022-11-17T08:38:37.845Z,96.31
2022-11-17T08:39:37.666Z,95.70
2022-11-17T08:40:37.642Z,96.51
2022-11-17T08:41:37.661Z,96.72
2022-11-17T08:42:37.630Z,96.83
2022-11-17T08:43:37.630Z,96.62
2022-11-17T08:44:37.622Z,96.72
2022-11-17T08:45:37.617Z,96.31
2022-11-17T08:46:37.580Z,96.11
2022-11-17T08:47:37.580Z,96.01
2022-11-17T08:48:37.988Z,96.83
2022-11-17T08:49:37.598Z,94.58
2022-11-17T08:50:37.552Z,96.83
2022-11-17T08:51:37.541Z,95.70
2022-11-17T08:52:37.519Z,95.50
2022-11-17T08:53:37.524Z,95.39
2022-11-17T08:54:37.497Z,95.19
2022-11-17T08:55:41.030Z,95.65
2022-11-17T08:56:37.499Z,95.45
2022-11-17T08:57:37.474Z,96.17
2022-11-17T08:58:37.880Z,96.06
2022-11-17T08:59:37.446Z,95.04
2022-11-17T09:00:37.493Z,94.64
2022-11-17T09:01:37.525Z,93.00
2022-11-17T09:02:37.406Z,94.94
2022-11-17T09:03:37.516Z,94.23
2022-11-17T09:04:37.386Z,94.02
2022-11-17T09:05:37.389Z,94.02
2022-11-17T09:06:37.354Z,93.62
2022-11-17T09:07:37.460Z,92.90
2022-11-17T09:08:46.760Z,92.90
2022-11-17T09:09:37.388Z,92.69
2022-11-17T09:10:37.297Z,94.08
2022-11-17T09:11:37.301Z,93.88
2022-11-17T09:12:37.274Z,92.76
2022-11-17T09:13:37.306Z,93.06
2022-11-17T09:14:37.259Z,92.35
2022-11-17T09:15:37.256Z,93.26
2022-11-17T09:16:37.233Z,92.86
2022-11-17T09:17:37.240Z,92.65
2022-11-17T09:18:37.716Z,93.37
2022-11-17T09:19:37.385Z,93.67
2022-11-17T09:20:41.443Z,92.35
2022-11-17T09:21:37.199Z,92.65
2022-11-17T09:22:37.177Z,92.65
2022-11-17T09:23:37.643Z,93.37
2022-11-17T09:24:37.164Z,93.98
2022-11-17T09:25:37.158Z,94.08
2022-11-17T09:26:37.140Z,94.08
2022-11-17T09:27:37.148Z,93.57
2022-11-17T09:28:37.515Z,93.67
2022-11-17T09:29:37.109Z,92.04
2022-11-17T09:30:37.121Z,94.29
2022-11-17T09:31:37.132Z,93.57
2022-11-17T09:32:37.101Z,94.08
2022-11-17T09:33:37.091Z,94.70
2022-11-17T09:34:37.267Z,95.00
2022-11-17T09:35:37.055Z,94.70
2022-11-17T09:36:37.038Z,93.77
2022-11-17T09:38:35.194Z,93.67
2022-11-17T09:39:35.767Z,94.49
2022-11-17T09:40:38.053Z,95.20
2022-11-17T09:41:35.756Z,93.98
2022-11-17T09:42:35.777Z,94.08
2022-11-17T09:43:35.789Z,93.88
2022-11-17T09:44:35.732Z,94.08
2022-11-17T09:45:35.765Z,93.57
2022-11-17T09:46:35.756Z,93.47
2022-11-17T09:47:35.689Z,93.02
2022-11-17T09:48:41.110Z,94.14
2022-11-17T09:49:35.668Z,93.63
2022-11-17T09:50:35.659Z,93.93
2022-11-17T09:51:35.666Z,93.93
2022-11-17T09:52:35.656Z,93.43
2022-11-17T09:53:35.981Z,92.91
2022-11-17T09:54:35.629Z,93.52
2022-11-17T09:55:35.611Z,92.91
2022-11-17T09:56:35.623Z,93.32
2022-11-17T09:57:35.606Z,93.12
2022-11-17T09:58:36.053Z,93.32
2022-11-17T09:59:35.729Z,92.61
2022-11-17T10:00:35.581Z,92.50
2022-11-17T10:01:35.576Z,92.00
2022-11-17T10:02:35.614Z,93.12
2022-11-17T10:03:40.306Z,91.08
2022-11-17T10:04:35.521Z,92.91
2022-11-17T10:05:35.495Z,92.41
2022-11-17T10:06:35.523Z,92.20
2022-11-17T10:07:35.607Z,92.87
2022-11-17T10:08:35.499Z,91.79
2022-11-17T10:09:35.446Z,92.05
2022-11-17T10:10:35.464Z,91.75
2022-11-17T10:11:35.436Z,92.46
2022-11-17T10:12:35.431Z,91.85
2022-11-17T10:13:35.696Z,91.55
2022-11-17T10:14:35.406Z,92.57
2022-11-17T10:15:35.406Z,92.46
2022-11-17T10:16:36.207Z,91.35
2022-11-17T10:17:35.360Z,90.42
2022-11-17T10:18:38.115Z,92.57
2022-11-17T10:19:35.504Z,91.24
2022-11-17T10:20:35.364Z,91.44
2022-11-17T10:21:35.323Z,91.44
2022-11-17T10:22:35.316Z,91.65
2022-11-17T10:23:37.793Z,91.85
2022-11-17T10:24:35.356Z,91.14
2022-11-17T10:25:35.283Z,91.85
2022-11-17T10:26:35.345Z,91.24
2022-11-17T10:27:35.255Z,91.03
2022-11-17T10:28:35.263Z,90.83
2022-11-17T10:29:35.234Z,90.22
2022-11-17T10:30:35.259Z,91.03
2022-11-17T10:31:35.208Z,91.44
2022-11-17T10:32:35.224Z,90.53
2022-11-17T10:33:35.459Z,92.26
2022-11-17T10:34:40.582Z,92.05
2022-11-17T10:35:35.171Z,91.85
2022-11-17T10:36:35.179Z,92.05
2022-11-17T10:37:35.144Z,90.53
2022-11-17T10:38:35.172Z,91.24
2022-11-17T10:39:35.123Z,89.92
2022-11-17T10:40:35.165Z,90.73
2022-11-17T10:41:35.134Z,90.69
2022-11-17T10:42:35.111Z,92.01
2022-11-17T10:43:35.494Z,91.61
2022-11-17T10:44:35.085Z,89.77
2022-11-17T10:45:35.057Z,90.28
2022-11-17T10:46:44.944Z,91.81
2022-11-17T10:47:35.043Z,90.69
2022-11-17T10:48:35.039Z,90.48
2022-11-17T10:49:35.014Z,91.81
2022-11-17T10:50:35.017Z,91.30
2022-11-17T10:51:35.011Z,91.71
2022-11-17T10:52:35.022Z,90.99
2022-11-17T10:53:41.105Z,91.30
2022-11-17T10:54:34.980Z,91.40
2022-11-17T10:55:34.945Z,89.97
2022-11-17T10:56:34.956Z,91.50
2022-11-17T10:57:34.940Z,89.97
2022-11-17T10:58:34.935Z,90.48
2022-11-17T10:59:34.911Z,90.38
2022-11-17T11:00:34.922Z,89.77
2022-11-17T11:01:35.086Z,90.89
2022-11-17T11:02:34.927Z,89.87
2022-11-17T11:03:35.390Z,89.57
2022-11-17T11:04:34.892Z,90.55
2022-11-17T11:05:34.847Z,88.40
2022-11-17T11:06:34.855Z,90.44
2022-11-17T11:07:34.859Z,89.32
2022-11-17T11:08:34.837Z,88.10
2022-11-17T11:09:34.886Z,88.71
2022-11-17T11:10:34.820Z,89.94
2022-11-17T11:11:36.458Z,90.03
2022-11-17T11:12:34.789Z,88.81
2022-11-17T11:13:34.772Z,89.73
2022-11-17T11:14:34.758Z,89.73
2022-11-17T11:15:34.809Z,89.22
2022-11-17T11:16:34.739Z,89.83
2022-11-17T11:17:34.763Z,90.24
2022-11-17T11:18:34.725Z,90.24
2022-11-17T11:19:34.704Z,90.91
2022-11-17T11:20:34.704Z,88.31
2022-11-17T11:21:34.666Z,90.44
2022-11-17T11:22:34.685Z,90.14
2022-11-17T11:23:34.663Z,90.24
2022-11-17T11:24:34.671Z,89.94
2022-11-17T11:25:34.622Z,90.95
2022-11-17T11:26:34.636Z,88.92
2022-11-17T11:27:34.600Z,90.14
2022-11-17T11:28:34.617Z,89.12
2022-11-17T11:29:34.602Z,89.01
2022-11-17T11:30:34.575Z,90.34
2022-11-17T11:31:34.584Z,89.94
2022-11-17T11:32:34.569Z,90.14
2022-11-17T11:33:34.533Z,90.95
2022-11-17T11:34:34.536Z,90.34
2022-11-17T11:35:34.547Z,90.64
2022-11-17T11:36:34.525Z,90.89
2022-11-17T11:37:34.489Z,92.11
2022-11-17T11:38:34.502Z,92.83
2022-11-17T11:39:34.466Z,93.13
2022-11-17T11:40:34.482Z,93.74
2022-11-17T11:41:34.470Z,93.03
2022-11-17T11:42:34.460Z,93.44
2022-11-17T11:43:34.442Z,93.38
2022-11-17T11:44:34.431Z,93.59
2022-11-17T11:45:34.408Z,94.09
2022-11-17T11:46:34.417Z,94.40
2022-11-17T11:47:34.387Z,93.59
2022-11-17T11:49:31.272Z,94.20
2022-11-17T11:50:41.729Z,94.55
2022-11-17T11:51:32.322Z,93.73
2022-11-17T11:52:32.236Z,95.16
2022-11-17T11:53:32.221Z,94.45
2022-11-17T11:54:32.243Z,95.01
2022-11-17T11:55:32.193Z,94.91
2022-11-17T11:56:32.196Z,95.21
2022-11-17T11:57:32.177Z,94.20
2022-11-17T11:58:32.180Z,94.09
2022-11-17T11:59:32.143Z,94.20
2022-11-17T12:00:32.189Z,94.20
2022-11-17T12:01:32.132Z,93.48
2022-11-17T12:02:32.162Z,93.89
2022-11-17T12:03:32.205Z,94.30
2022-11-17T12:04:32.116Z,95.01
2022-11-17T12:05:32.136Z,93.99
2022-11-17T12:06:32.093Z,94.20
2022-11-17T12:07:32.122Z,93.89
2022-11-17T12:08:32.074Z,95.12
2022-11-17T12:09:32.042Z,94.50
2022-11-17T12:10:32.048Z,94.20
2022-11-17T12:11:32.066Z,94.50
2022-11-17T12:12:32.041Z,93.95
2022-11-17T12:13:32.010Z,94.05
2022-11-17T12:14:32.015Z,94.56
2022-11-17T12:15:31.972Z,93.64
2022-11-17T12:16:38.020Z,93.13
2022-11-17T12:17:31.955Z,92.48
2022-11-17T12:18:31.966Z,93.40
2022-11-17T12:19:31.938Z,93.09
2022-11-17T12:20:31.939Z,91.97
2022-11-17T12:21:31.911Z,92.03
2022-11-17T12:22:31.960Z,92.33
2022-11-17T12:23:31.896Z,91.01
2022-11-17T12:24:31.926Z,91.83
2022-11-17T12:25:31.884Z,91.22
2022-11-17T12:26:31.899Z,91.38
2022-11-17T12:27:31.853Z,90.66
2022-11-17T12:28:31.867Z,90.77
2022-11-17T12:29:31.849Z,90.97
2022-11-17T12:30:31.842Z,91.17
2022-11-17T12:31:31.807Z,89.81
2022-11-17T12:32:31.839Z,90.31
2022-11-17T12:33:31.785Z,89.00
2022-11-17T12:34:31.825Z,88.89
2022-11-17T12:35:31.775Z,87.77
2022-11-17T12:36:31.876Z,89.00
2022-11-17T12:37:31.754Z,89.00
2022-11-17T12:38:31.774Z,87.77
2022-11-17T12:39:31.726Z,88.28
2022-11-17T12:40:31.725Z,87.67
2022-11-17T12:41:31.723Z,87.77
2022-11-17T12:42:31.800Z,88.28
2022-11-17T12:43:31.677Z,87.37
2022-11-17T12:44:31.675Z,88.48
2022-11-17T12:45:31.661Z,88.48
2022-11-17T12:46:31.675Z,87.67
2022-11-17T12:47:31.643Z,88.48
2022-11-17T12:48:34.411Z,86.25
2022-11-17T12:49:31.618Z,87.57
2022-11-17T12:50:31.645Z,86.35
2022-11-17T12:51:31.587Z,87.16
2022-11-17T12:52:31.602Z,86.15
2022-11-17T12:53:31.566Z,85.94
2022-11-17T12:54:31.584Z,85.33
2022-11-17T12:55:31.544Z,85.13
2022-11-17T12:56:31.566Z,85.23
2022-11-17T12:57:31.526Z,85.94
2022-11-17T12:58:31.561Z,87.47
2022-11-17T12:59:31.535Z,86.96
2022-11-17T13:00:31.501Z,86.04
2022-11-17T13:01:31.607Z,86.76
2022-11-17T13:02:31.469Z,89.81
2022-11-17T13:03:31.481Z,87.87
2022-11-17T13:04:31.489Z,87.87
2022-11-17T13:05:31.453Z,87.47
2022-11-17T13:06:36.412Z,89.70
2022-11-17T13:07:31.480Z,88.69
2022-11-17T13:08:31.473Z,87.87
2022-11-17T13:09:31.422Z,89.40
2022-11-17T13:10:31.412Z,87.47
2022-11-17T13:11:31.393Z,87.57
2022-11-17T13:12:31.360Z,86.86
2022-11-17T13:13:31.371Z,86.86
2022-11-17T13:14:31.344Z,87.16
2022-11-17T13:15:31.411Z,86.86
2022-11-17T13:16:31.349Z,86.76
2022-11-17T13:17:31.332Z,85.74
2022-11-17T13:18:31.406Z,86.35
2022-11-17T13:19:31.323Z,86.96
2022-11-17T13:20:31.277Z,85.33
2022-11-17T13:21:31.300Z,86.55
2022-11-17T13:22:31.288Z,87.67
2022-11-17T13:23:31.254Z,86.04
2022-11-17T13:24:31.236Z,85.13
2022-11-17T13:25:31.237Z,84.92
2022-11-17T13:26:31.235Z,85.53
2022-11-17T13:27:31.244Z,86.35
2022-11-17T13:28:31.198Z,85.47
2022-11-17T13:29:31.231Z,86.90
2022-11-17T13:30:31.188Z,85.58
2022-11-17T13:31:31.183Z,87.92
2022-11-17T13:32:31.146Z,88.73
2022-11-17T13:33:35.416Z,87.51
2022-11-17T13:34:31.129Z,87.51
2022-11-17T13:35:31.149Z,87.71
2022-11-17T13:36:31.129Z,88.93
2022-11-17T13:37:31.121Z,89.03
2022-11-17T13:38:31.087Z,87.92
2022-11-17T13:39:31.086Z,88.63
2022-11-17T13:40:31.083Z,87.41
2022-11-17T13:41:31.070Z,87.51
2022-11-17T13:42:31.045Z,86.90
2022-11-17T13:43:31.043Z,90.77
2022-11-17T13:44:31.028Z,86.63
2022-11-17T13:45:31.029Z,88.16
2022-11-17T13:46:31.026Z,87.24
2022-11-17T13:47:30.999Z,89.28
2022-11-17T13:48:30.976Z,88.36
2022-11-17T13:49:31.001Z,88.06
2022-11-17T13:50:30.987Z,87.85
2022-11-17T13:51:30.964Z,88.46
2022-11-17T13:52:35.235Z,88.31
2022-11-17T13:53:30.951Z,88.71
2022-11-17T13:54:30.925Z,89.22
2022-11-17T13:55:30.936Z,88.61
2022-11-17T13:56:30.898Z,88.92
2022-11-17T13:57:30.892Z,87.69
2022-11-17T13:58:30.881Z,86.88
2022-11-17T13:59:30.900Z,88.20
2022-11-17T14:00:30.859Z,88.31
2022-11-17T14:01:30.926Z,88.40
2022-11-17T14:02:30.910Z,88.61
2022-11-17T14:03:30.979Z,87.90
2022-11-17T14:04:30.807Z,87.29
2022-11-17T14:05:30.818Z,88.51
2022-11-17T14:06:30.800Z,88.81
2022-11-17T14:07:30.813Z,89.12
2022-11-17T14:08:30.765Z,87.90
2022-11-17T14:09:30.766Z,87.38
2022-11-17T14:10:30.764Z,85.55
2022-11-17T14:11:30.755Z,89.63
2022-11-17T14:12:30.768Z,87.79
2022-11-17T14:13:30.731Z,88.20
2022-11-17T14:14:30.700Z,87.63
2022-11-17T14:15:30.706Z,87.90
2022-11-17T14:16:30.685Z,89.06
2022-11-17T14:17:30.681Z,87.53
2022-11-17T14:18:30.675Z,88.34
2022-11-17T14:19:30.676Z,86.92
2022-11-17T14:20:30.638Z,86.10
2022-11-17T14:21:30.652Z,87.53
2022-11-17T14:22:31.997Z,87.84
2022-11-17T14:23:30.618Z,89.26
2022-11-17T14:24:30.593Z,89.77
2022-11-17T14:25:30.615Z,89.57
2022-11-17T14:26:30.580Z,88.24
2022-11-17T14:27:30.571Z,87.23
2022-11-17T14:28:30.549Z,86.71
2022-11-17T14:29:30.547Z,87.63
2022-11-17T14:30:30.540Z,88.75
2022-11-17T14:31:30.542Z,87.63
2022-11-17T14:32:30.514Z,88.85
2022-11-17T14:33:30.511Z,89.97
2022-11-17T14:34:30.517Z,88.24
2022-11-17T14:35:30.546Z,87.43
2022-11-17T14:36:30.466Z,89.20
2022-11-17T14:37:30.481Z,88.28
2022-11-17T14:38:30.452Z,88.08
2022-11-17T14:39:30.450Z,89.40
2022-11-17T14:40:30.420Z,88.59
2022-11-17T14:41:30.445Z,89.81
2022-11-17T14:42:35.853Z,88.90
2022-11-17T14:43:30.418Z,89.40
2022-11-17T14:44:30.408Z,90.53
2022-11-17T14:45:30.400Z,88.90
2022-11-17T14:46:30.382Z,89.81
2022-11-17T14:47:30.369Z,90.12
2022-11-17T14:48:30.340Z,90.83
2022-11-17T14:49:30.339Z,93.07
2022-11-17T14:50:30.339Z,93.18
2022-11-17T14:51:30.357Z,93.32
2022-11-17T14:52:30.391Z,94.65
2022-11-17T14:53:30.311Z,95.06
2022-11-17T14:54:30.271Z,94.55
2022-11-17T14:55:30.281Z,94.95
2022-11-17T14:56:30.252Z,94.75
2022-11-17T14:57:30.267Z,95.57
2022-11-17T14:58:30.254Z,93.93
2022-11-17T14:59:30.239Z,94.29
2022-11-17T15:00:30.238Z,94.70
2022-11-17T15:01:30.227Z,93.88
2022-11-17T15:02:30.198Z,94.59
2022-11-17T15:03:30.313Z,95.00
2022-11-17T15:05:30.208Z,95.10
2022-11-17T15:06:30.175Z,94.79
2022-11-17T15:07:30.256Z,94.84
2022-11-17T15:08:30.142Z,95.56
2022-11-17T15:09:30.180Z,96.47
2022-11-17T15:10:30.185Z,97.29
2022-11-17T15:11:33.942Z,90.12
2022-11-17T15:12:30.098Z,88.29
2022-11-17T15:13:31.096Z,87.67
2022-11-17T15:14:30.065Z,90.06
2022-11-17T15:15:30.080Z,90.39
2022-11-17T15:16:30.757Z,94.28
2022-11-17T15:17:30.079Z,96.33
2022-11-17T15:18:30.036Z,99.32
2022-11-17T15:19:30.031Z,99.99
2022-11-17T15:20:30.002Z,99.99
2022-11-17T15:21:30.014Z,99.99
2022-11-17T15:22:30.001Z,99.99
2022-11-17T15:23:30.400Z,99.99
2022-11-17T15:24:29.975Z,99.99
2022-11-17T15:25:29.961Z,99.99
2022-11-17T15:26:29.938Z,99.99
2022-11-17T15:27:29.933Z,99.99
2022-11-17T15:28:30.457Z,99.99
2022-11-17T15:29:29.913Z,99.99
2022-11-17T15:30:29.909Z,99.99
2022-11-17T15:31:29.936Z,99.99
2022-11-17T15:32:29.900Z,99.99
2022-11-17T15:33:29.900Z,99.99
2022-11-17T15:34:29.848Z,99.99
2022-11-17T15:35:29.847Z,99.99
2022-11-17T15:36:29.847Z,99.99
2022-11-17T15:37:29.841Z,99.99
2022-11-17T15:38:29.833Z,99.99
2022-11-17T15:39:29.816Z,99.99
2022-11-17T15:40:29.792Z,99.99
2022-11-17T15:41:32.880Z,99.99
2022-11-17T15:42:29.780Z,99.99
2022-11-17T15:43:29.782Z,99.99
2022-11-17T15:44:29.776Z,99.99
2022-11-17T15:45:29.791Z,99.99
2022-11-17T15:46:29.734Z,99.99
2022-11-17T15:47:29.722Z,99.99
2022-11-17T15:48:29.703Z,99.99
2022-11-17T15:49:29.713Z,99.99
2022-11-17T15:50:29.698Z,99.99
2022-11-17T15:51:29.697Z,99.99
2022-11-17T15:52:56.414Z,99.99
2022-11-17T15:53:29.674Z,99.99
2022-11-17T15:54:29.633Z,99.99
2022-11-17T15:55:29.652Z,99.99
2022-11-17T15:56:29.638Z,99.99
2022-11-17T15:57:29.628Z,99.99
2022-11-17T15:58:29.613Z,99.99
2022-11-17T15:59:29.596Z,99.99
2022-11-17T16:00:29.658Z,99.99
2022-11-17T16:01:29.660Z,99.99
2022-11-17T16:02:29.571Z,99.99
2022-11-17T16:03:29.561Z,99.99
2022-11-17T16:04:29.533Z,99.99
2022-11-17T16:05:29.541Z,99.99
2022-11-17T16:06:29.505Z,99.99
2022-11-17T16:07:29.679Z,99.99
2022-11-17T16:08:29.578Z,99.99
2022-11-17T16:09:29.545Z,99.99
2022-11-17T16:10:29.545Z,99.99
2022-11-17T16:11:29.603Z,99.99
2022-11-17T16:12:29.504Z,99.99
2022-11-17T16:13:29.537Z,99.99
2022-11-17T16:14:29.479Z,99.99
2022-11-17T16:15:29.495Z,99.99
2022-11-17T16:16:29.461Z,99.99
2022-11-17T16:17:29.456Z,99.99
2022-11-17T16:18:29.441Z,99.99
2022-11-17T16:19:29.457Z,99.99
2022-11-17T16:20:29.510Z,99.99
2022-11-17T16:21:29.417Z,99.99
2022-11-17T16:22:29.398Z,99.99
2022-11-17T16:23:29.408Z,99.99
2022-11-17T16:24:29.680Z,99.99
2022-11-17T16:25:29.380Z,99.99
2022-11-17T16:26:29.356Z,99.99
2022-11-17T16:27:29.355Z,99.99
2022-11-17T16:28:29.335Z,99.99
2022-11-17T16:29:29.368Z,99.99
2022-11-17T16:30:35.212Z,99.99
2022-11-17T16:31:29.333Z,99.99
2022-11-17T16:32:29.300Z,99.99
2022-11-17T16:33:29.392Z,99.99
2022-11-17T16:34:29.262Z,99.99
2022-11-17T16:35:29.264Z,99.99
2022-11-17T16:36:34.547Z,99.99
2022-11-17T16:37:29.324Z,99.99
2022-11-17T16:38:29.239Z,99.99
2022-11-17T16:39:29.226Z,99.99
2022-11-17T16:40:29.258Z,99.99
2022-11-17T16:41:29.207Z,99.99
2022-11-17T16:42:29.206Z,99.99
2022-11-17T16:43:29.199Z,99.99
2022-11-17T16:44:29.251Z,99.99
2022-11-17T16:45:29.164Z,99.99
2022-11-17T16:46:29.185Z,99.99